createdAt,value
2018-01-03T00:01:01.338Z,6.0
2018-01-03T00:02:03.434Z,5.9
2018-01-03T00:03:05.567Z,6.6
2018-01-03T00:04:07.773Z,6.8
2018-01-03T00:05:09.896Z,5.4
2018-01-03T00:06:12.036Z,6.5
2018-01-03T00:07:14.072Z,5.7
2018-01-03T00:08:15.969Z,5.4
2018-01-03T00:09:24.192Z,4.9
2018-01-03T00:10:26.030Z,5.0
2018-01-03T00:11:27.933Z,5.8
2018-01-03T00:12:30.056Z,5.0
2018-01-03T00:13:31.961Z,5.5
2018-01-03T00:14:34.180Z,6.2
2018-01-03T00:15:37.113Z,4.8
2018-01-03T00:16:38.986Z,5.1
2018-01-03T00:17:40.950Z,7.0
2018-01-03T00:18:42.834Z,5.4
2018-01-03T00:19:44.736Z,4.6
2018-01-03T00:20:47.329Z,4.2
2018-01-03T00:21:49.251Z,5.4
2018-01-03T00:22:51.167Z,4.5
2018-01-03T00:23:53.852Z,3.9
2018-01-03T00:24:56.621Z,4.1
2018-01-03T00:25:58.489Z,3.6
2018-01-03T00:27:00.364Z,3.3
2018-01-03T00:28:02.221Z,4.0
2018-01-03T00:29:04.022Z,3.7
2018-01-03T00:30:06.199Z,3.4
2018-01-03T00:31:08.084Z,3.0
2018-01-03T00:32:09.968Z,2.6
2018-01-03T00:33:11.941Z,2.9
2018-01-03T00:34:13.946Z,2.6
2018-01-03T00:35:15.912Z,3.4
2018-01-03T00:36:18.371Z,3.0
2018-01-03T00:37:21.004Z,2.8
2018-01-03T00:38:22.906Z,2.4
2018-01-03T00:39:24.817Z,2.2
2018-01-03T00:40:26.794Z,2.7
2018-01-03T00:41:28.647Z,2.8
2018-01-03T00:42:30.475Z,2.8
2018-01-03T00:43:32.795Z,2.3
2018-01-03T00:44:34.754Z,2.3
2018-01-03T00:46:48.484Z,2.2
2018-01-03T05:27:31.093Z,0.7
2018-01-03T05:28:32.739Z,1.8
2018-01-03T05:29:34.645Z,1.8
2018-01-03T05:30:36.476Z,1.5
2018-01-03T05:31:38.349Z,1.9
2018-01-03T05:32:40.233Z,1.9
2018-01-03T05:33:42.372Z,1.0
2018-01-03T05:34:44.429Z,1.1
2018-01-03T05:35:46.479Z,2.0
2018-01-03T05:36:48.536Z,1.7
2018-01-03T05:37:50.465Z,1.9
2018-01-03T05:38:52.305Z,2.1
2018-01-03T05:39:54.445Z,1.5
2018-01-03T05:40:56.464Z,1.1
2018-01-03T05:41:58.468Z,1.8
2018-01-03T05:43:00.644Z,1.5
2018-01-03T05:44:02.810Z,1.7
2018-01-03T05:45:04.905Z,5.8
2018-01-03T05:46:07.124Z,2.8
2018-01-03T05:47:09.222Z,2.0
2018-01-03T05:48:11.297Z,2.4
2018-01-03T05:49:13.495Z,2.0
2018-01-03T05:50:15.770Z,2.1
2018-01-03T05:51:17.862Z,2.4
2018-01-03T05:52:19.872Z,2.2
2018-01-03T05:53:21.682Z,1.3
2018-01-03T05:54:24.009Z,1.6
2018-01-03T05:55:26.203Z,2.6
2018-01-03T05:56:28.209Z,3.4
2018-01-03T05:57:30.154Z,3.5
2018-01-03T05:58:32.260Z,2.3
2018-01-03T05:59:34.280Z,3.2
2018-01-03T06:00:36.199Z,4.4
2018-01-03T06:01:38.417Z,4.9
2018-01-03T06:02:40.348Z,3.0
2018-01-03T06:03:42.299Z,5.2
2018-01-03T06:04:44.588Z,2.7
2018-01-03T06:05:46.593Z,2.9
2018-01-03T06:06:48.525Z,2.9
2018-01-03T06:07:50.617Z,2.8
2018-01-03T06:08:52.619Z,3.3
2018-01-03T06:09:54.693Z,4.9
2018-01-03T06:10:56.605Z,2.8
2018-01-03T06:11:58.509Z,6.8
2018-01-03T06:13:00.459Z,5.3
2018-01-03T06:14:02.357Z,3.7
2018-01-03T06:15:04.308Z,3.7
2018-01-03T06:16:06.380Z,4.5
2018-01-03T06:17:08.796Z,6.5
2018-01-03T06:18:10.793Z,3.2
2018-01-03T06:19:12.687Z,3.2
2018-01-03T06:20:14.673Z,4.1
2018-01-03T06:21:16.618Z,4.5
2018-01-03T06:22:18.700Z,5.6
2018-01-03T06:23:20.750Z,5.7
2018-01-03T06:24:22.749Z,4.8
2018-01-03T06:25:24.690Z,6.4
2018-01-03T06:26:26.711Z,7.6
2018-01-03T06:27:28.855Z,8.3
2018-01-03T06:28:31.111Z,4.5
2018-01-03T06:29:33.350Z,4.9
2018-01-03T06:30:35.428Z,5.2
2018-01-03T06:31:37.463Z,4.9
2018-01-03T06:32:39.414Z,5.7
2018-01-03T06:33:41.618Z,6.7
2018-01-03T06:34:43.608Z,5.7
2018-01-03T06:35:45.867Z,6.2
2018-01-03T06:36:47.851Z,6.0
2018-01-03T06:37:49.860Z,8.7
2018-01-03T06:38:51.833Z,8.7
2018-01-03T06:39:53.996Z,8.1
2018-01-03T06:40:56.094Z,6.4
2018-01-03T06:41:58.092Z,11.5
2018-01-03T06:43:00.274Z,8.2
2018-01-03T06:44:02.466Z,8.1
2018-01-03T06:45:04.482Z,5.6
2018-01-03T06:46:06.510Z,7.4
2018-01-03T06:47:08.827Z,4.8
2018-01-03T06:48:11.053Z,6.2
2018-01-03T06:49:13.164Z,9.6
2018-01-03T06:50:15.288Z,9.5
2018-01-03T06:51:17.425Z,3.7
2018-01-03T06:52:19.480Z,7.5
2018-01-03T06:53:21.772Z,7.2
2018-01-03T06:54:23.951Z,6.5
2018-01-03T06:55:26.048Z,8.3
2018-01-03T06:56:28.011Z,9.2
2018-01-03T06:57:30.053Z,6.3
2018-01-03T06:58:32.223Z,9.1
2018-01-03T06:59:34.529Z,7.4
2018-01-03T07:00:36.483Z,8.4
2018-01-03T07:01:38.566Z,8.5
2018-01-03T07:02:40.764Z,9.1
2018-01-03T07:03:42.756Z,6.9
2018-01-03T07:04:44.901Z,6.3
2018-01-03T07:05:47.144Z,10.9
2018-01-03T07:06:49.263Z,9.2
2018-01-03T07:07:51.396Z,9.4
2018-01-03T07:08:53.541Z,12.2
2018-01-03T07:09:55.616Z,7.8
2018-01-03T07:10:57.605Z,8.4
2018-01-03T07:11:59.779Z,10.9
2018-01-03T07:13:01.757Z,10.4
2018-01-03T07:14:03.924Z,9.5
2018-01-03T07:15:06.080Z,10.4
2018-01-03T07:16:08.171Z,12.6
2018-01-03T07:17:10.357Z,12.4
2018-01-03T07:18:12.366Z,11.3
2018-01-03T07:19:14.390Z,11.5
2018-01-03T07:20:16.535Z,9.7
2018-01-03T07:21:18.454Z,7.8
2018-01-03T07:22:20.605Z,10.2
2018-01-03T07:23:22.574Z,11.7
2018-01-03T07:24:24.628Z,8.6
2018-01-03T07:25:27.054Z,11.0
2018-01-03T07:26:29.242Z,13.1
2018-01-03T07:27:31.103Z,11.6
2018-01-03T07:28:33.047Z,9.5
2018-01-03T07:29:34.851Z,5.6
2018-01-03T07:30:36.893Z,5.2
2018-01-03T07:31:38.927Z,4.8
2018-01-03T07:32:41.075Z,3.7
2018-01-03T07:33:43.178Z,4.6
2018-01-03T07:34:45.150Z,5.9
2018-01-03T07:35:47.062Z,5.7
2018-01-03T07:36:49.071Z,5.7
2018-01-03T07:37:51.034Z,4.9
2018-01-03T07:38:52.878Z,4.5
2018-01-03T07:39:55.144Z,5.4
2018-01-03T07:40:57.323Z,6.7
2018-01-03T07:41:59.437Z,6.5
2018-01-03T07:43:01.496Z,6.3
2018-01-03T07:44:03.504Z,4.3
2018-01-03T07:45:05.704Z,5.7
2018-01-03T07:46:07.741Z,6.5
2018-01-03T07:47:09.792Z,6.5
2018-01-03T07:48:11.801Z,6.4
2018-01-03T07:49:13.724Z,5.4
2018-01-03T07:50:15.918Z,6.6
2018-01-03T07:51:18.158Z,8.1
2018-01-03T07:52:20.397Z,4.7
2018-01-03T07:53:22.526Z,6.5
2018-01-03T07:54:24.590Z,9.4
2018-01-03T07:55:26.770Z,5.8
2018-01-03T07:56:28.724Z,6.4
2018-01-03T07:57:31.110Z,7.5
2018-01-03T07:58:33.468Z,6.8
2018-01-03T07:59:35.649Z,8.6
2018-01-03T08:00:37.586Z,6.3
2018-01-03T08:01:39.711Z,7.5
2018-01-03T08:02:41.930Z,4.1
2018-01-03T08:03:43.921Z,7.4
2018-01-03T08:04:46.015Z,8.4
2018-01-03T08:05:48.085Z,7.2
2018-01-03T08:06:50.099Z,4.6
2018-01-03T08:07:52.220Z,8.8
2018-01-03T08:08:54.156Z,6.6
2018-01-03T08:09:56.312Z,7.9
2018-01-03T08:10:58.456Z,5.0
2018-01-03T08:12:00.781Z,7.4
2018-01-03T08:13:02.961Z,7.0
2018-01-03T08:14:05.186Z,7.3
2018-01-03T08:15:07.421Z,6.6
2018-01-03T08:16:09.376Z,5.4
2018-01-03T08:17:11.613Z,5.3
2018-01-03T08:18:13.788Z,6.3
2018-01-03T08:19:16.409Z,8.6
2018-01-03T08:20:18.543Z,6.9
2018-01-03T08:21:20.756Z,10.2
2018-01-03T08:22:22.761Z,7.0
2018-01-03T08:23:25.412Z,8.4
2018-01-03T08:24:27.656Z,9.0
2018-01-03T08:25:29.647Z,8.0
2018-01-03T08:26:31.743Z,9.0
2018-01-03T08:27:33.981Z,10.6
2018-01-03T08:28:36.054Z,7.1
2018-01-03T08:29:38.337Z,8.3
2018-01-03T08:30:40.996Z,9.2
2018-01-03T08:31:43.289Z,14.1
2018-01-03T08:32:45.307Z,13.2
2018-01-03T08:33:47.576Z,8.4
2018-01-03T08:34:49.609Z,10.4
2018-01-03T08:35:51.705Z,8.9
2018-01-03T08:36:53.770Z,9.1
2018-01-03T08:37:56.615Z,8.5
2018-01-03T08:38:58.654Z,12.2
2018-01-03T08:40:00.697Z,8.8
2018-01-03T08:41:02.749Z,13.4
2018-01-03T08:42:05.008Z,10.8
2018-01-03T08:43:07.252Z,14.3
2018-01-03T08:44:09.424Z,11.6
2018-01-03T08:45:11.419Z,9.2
2018-01-03T08:46:13.584Z,8.6
2018-01-03T08:47:15.672Z,10.1
2018-01-03T08:48:17.856Z,10.3
2018-01-03T08:49:20.060Z,7.5
2018-01-03T08:50:22.167Z,9.3
2018-01-03T08:51:24.217Z,11.6
2018-01-03T08:52:26.270Z,11.6
2018-01-03T08:53:28.539Z,13.7
2018-01-03T08:54:30.696Z,12.1
2018-01-03T08:55:32.787Z,9.4
2018-01-03T08:56:35.126Z,9.3
2018-01-03T08:57:37.086Z,11.8
2018-01-03T08:58:39.244Z,11.7
2018-01-03T08:59:41.507Z,11.3
2018-01-03T09:00:43.644Z,8.3
2018-01-03T09:01:45.691Z,10.6
2018-01-03T09:02:47.747Z,9.6
2018-01-03T09:03:50.394Z,8.9
2018-01-03T09:04:52.456Z,11.0
2018-01-03T09:05:54.711Z,8.8
2018-01-03T09:06:56.971Z,9.4
2018-01-03T09:07:59.051Z,10.7
2018-01-03T09:09:01.463Z,10.6
2018-01-03T09:10:03.720Z,10.0
2018-01-03T09:11:05.995Z,8.5
2018-01-03T09:12:08.128Z,13.5
2018-01-03T09:13:10.258Z,8.9
2018-01-03T09:14:12.474Z,8.8
2018-01-03T09:15:14.694Z,12.4
2018-01-03T09:16:16.824Z,9.9
2018-01-03T09:17:19.780Z,8.8
2018-01-03T09:18:21.847Z,11.6
2018-01-03T09:19:23.880Z,11.2
2018-01-03T09:20:26.104Z,10.1
2018-01-03T09:21:28.413Z,10.5
2018-01-03T09:22:30.658Z,11.6
2018-01-03T09:23:32.902Z,9.7
2018-01-03T09:24:35.120Z,10.1
2018-01-03T09:25:37.414Z,7.4
2018-01-03T09:26:39.598Z,10.3
2018-01-03T09:27:41.818Z,8.9
2018-01-03T09:28:44.101Z,11.0
2018-01-03T09:29:46.460Z,13.8
2018-01-03T09:30:48.479Z,14.9
2018-01-03T09:31:50.485Z,11.9
2018-01-03T09:32:52.544Z,10.6
2018-01-03T09:33:54.599Z,12.0
2018-01-03T09:34:57.566Z,11.3
2018-01-03T09:36:01.662Z,12.3
2018-01-03T09:37:04.023Z,10.9
2018-01-03T09:38:06.148Z,10.1
2018-01-03T09:39:08.191Z,11.4
2018-01-03T09:40:10.398Z,11.8
2018-01-03T09:41:12.783Z,9.4
2018-01-03T09:42:14.893Z,12.9
2018-01-03T09:43:17.247Z,12.7
2018-01-03T09:44:19.472Z,11.4
2018-01-03T09:45:21.499Z,9.2
2018-01-03T09:46:23.551Z,10.3
2018-01-03T09:47:25.669Z,7.6
2018-01-03T09:48:27.753Z,8.1
2018-01-03T09:49:30.004Z,8.4
2018-01-03T09:50:32.176Z,9.1
2018-01-03T09:51:34.386Z,9.6
2018-01-03T09:52:36.679Z,8.6
2018-01-03T09:53:38.903Z,11.0
2018-01-03T09:54:40.991Z,12.3
2018-01-03T09:55:43.232Z,10.1
2018-01-03T09:56:45.570Z,10.6
2018-01-03T09:57:47.854Z,7.0
2018-01-03T09:58:49.833Z,10.1
2018-01-03T09:59:52.075Z,9.3
2018-01-03T10:00:54.070Z,10.7
2018-01-03T10:01:56.129Z,12.8
2018-01-03T10:02:58.338Z,9.6
2018-01-03T10:04:00.446Z,10.2
2018-01-03T10:05:02.540Z,11.0
2018-01-03T10:06:04.721Z,13.6
2018-01-03T10:07:06.741Z,11.8
2018-01-03T10:08:08.815Z,13.5
2018-01-03T10:09:10.897Z,12.7
2018-01-03T10:10:13.128Z,11.2
2018-01-03T10:11:15.398Z,14.4
2018-01-03T10:12:17.441Z,10.9
2018-01-03T10:13:19.585Z,10.9
2018-01-03T10:14:21.705Z,14.5
2018-01-03T10:15:23.748Z,14.7
2018-01-03T10:16:25.834Z,12.4
2018-01-03T10:17:27.837Z,8.3
2018-01-03T10:18:29.856Z,14.1
2018-01-03T10:19:31.932Z,14.6
2018-01-03T10:20:33.828Z,13.1
2018-01-03T10:21:36.049Z,13.1
2018-01-03T10:22:38.145Z,14.0
2018-01-03T10:23:40.398Z,14.9
2018-01-03T10:24:42.452Z,10.9
2018-01-03T10:25:44.639Z,12.6
2018-01-03T10:26:46.929Z,11.7
2018-01-03T10:27:49.183Z,11.0
2018-01-03T10:28:51.449Z,12.6
2018-01-03T10:29:53.581Z,11.2
2018-01-03T10:30:55.712Z,11.6
2018-01-03T10:31:57.861Z,14.0
2018-01-03T10:33:00.095Z,10.8
2018-01-03T10:34:01.986Z,12.8
2018-01-03T10:35:04.318Z,9.7
2018-01-03T10:36:06.460Z,10.6
2018-01-03T10:37:08.508Z,12.0
2018-01-03T10:38:10.539Z,11.3
2018-01-03T10:39:12.860Z,11.6
2018-01-03T10:40:14.620Z,15.0
2018-01-03T10:41:16.549Z,11.0
2018-01-03T10:42:18.615Z,10.9
2018-01-03T10:43:20.636Z,15.1
2018-01-03T10:44:22.758Z,13.9
2018-01-03T10:45:24.977Z,9.0
2018-01-03T10:46:26.904Z,13.2
2018-01-03T10:47:29.138Z,10.4
2018-01-03T10:48:31.075Z,13.2
2018-01-03T10:49:33.091Z,15.2
2018-01-03T10:50:35.258Z,10.9
2018-01-03T10:51:37.282Z,14.4
2018-01-03T10:52:39.556Z,12.1
2018-01-03T10:53:41.608Z,13.1
2018-01-03T10:54:44.174Z,14.3
2018-01-03T10:55:46.140Z,12.9
2018-01-03T10:56:48.370Z,11.8
2018-01-03T10:57:50.462Z,10.3
2018-01-03T10:58:52.603Z,14.0
2018-01-03T10:59:54.692Z,13.9
2018-01-03T11:00:56.713Z,12.6
2018-01-03T11:01:58.512Z,11.6
2018-01-03T11:03:00.333Z,10.9
2018-01-03T11:04:02.221Z,14.8
2018-01-03T11:05:04.313Z,11.3
2018-01-03T11:06:06.556Z,11.1
2018-01-03T11:07:08.621Z,11.4
2018-01-03T11:08:10.483Z,15.2
2018-01-03T11:09:12.814Z,11.3
2018-01-03T11:10:14.952Z,10.8
2018-01-03T11:11:17.233Z,15.2
2018-01-03T11:12:19.726Z,12.8
2018-01-03T11:13:22.131Z,12.7
2018-01-03T11:14:24.475Z,14.5
2018-01-03T11:15:26.842Z,14.6
2018-01-03T11:16:29.281Z,10.9
2018-01-03T11:18:40.898Z,14.3
2018-01-03T11:19:43.423Z,11.4
2018-01-03T11:20:45.117Z,10.8
2018-01-03T11:21:46.823Z,14.0
2018-01-03T11:22:48.636Z,11.9
2018-01-03T11:23:50.545Z,11.1
2018-01-03T11:24:52.501Z,13.2
2018-01-03T11:25:54.461Z,14.4
2018-01-03T11:26:56.836Z,11.8
2018-01-03T11:28:00.026Z,12.6
2018-01-03T11:29:01.876Z,13.6
2018-01-03T11:30:04.516Z,13.2
2018-01-03T11:31:06.426Z,12.8
2018-01-03T11:32:09.117Z,13.0
2018-01-03T11:33:11.130Z,12.1
2018-01-03T11:34:13.066Z,10.5
2018-01-03T11:35:15.086Z,14.2
2018-01-03T11:36:17.174Z,12.7
2018-01-03T11:37:19.298Z,13.6
2018-01-03T11:38:22.463Z,16.5
2018-01-03T11:39:25.022Z,15.2
2018-01-03T11:40:27.254Z,14.3
2018-01-03T11:41:30.312Z,12.4
2018-01-03T11:42:32.353Z,13.5
2018-01-03T11:43:34.372Z,14.1
2018-01-03T11:44:36.305Z,11.0
2018-01-03T11:45:38.272Z,15.2
2018-01-03T11:46:42.859Z,12.1
2018-01-03T11:47:44.833Z,13.6
2018-01-03T11:48:46.821Z,14.8
2018-01-03T11:49:48.961Z,15.6
2018-01-03T11:50:51.134Z,12.4
2018-01-03T11:51:53.287Z,12.2
2018-01-03T11:52:56.610Z,11.7
2018-01-03T11:53:58.933Z,13.6
2018-01-03T11:55:01.281Z,11.4
2018-01-03T11:56:04.068Z,14.3
2018-01-03T11:57:05.935Z,10.8
2018-01-03T11:58:08.711Z,12.4
2018-01-03T11:59:10.635Z,11.8
2018-01-03T12:00:13.309Z,11.1
2018-01-03T12:01:15.274Z,14.3
2018-01-03T12:02:17.243Z,10.1
2018-01-03T12:03:19.135Z,16.3
2018-01-03T12:04:23.623Z,9.0
2018-01-03T12:05:25.528Z,12.0
2018-01-03T12:06:27.511Z,13.0
2018-01-03T12:07:29.699Z,11.3
2018-01-03T12:08:31.597Z,14.5
2018-01-03T12:09:40.142Z,11.8
2018-01-03T12:10:42.810Z,12.3
2018-01-03T12:11:44.765Z,11.5
2018-01-03T12:12:46.649Z,9.9
2018-01-03T12:13:48.431Z,13.5
2018-01-03T12:14:50.401Z,13.6
2018-01-03T12:15:52.389Z,15.3
2018-01-03T12:16:55.184Z,15.7
2018-01-03T12:17:57.161Z,16.2
2018-01-03T12:18:59.019Z,14.4
2018-01-03T12:20:01.059Z,13.3
2018-01-03T12:21:03.281Z,10.9
2018-01-03T12:22:05.173Z,14.6
2018-01-03T12:23:07.409Z,14.5
2018-01-03T12:24:09.289Z,13.9
2018-01-03T12:25:11.374Z,14.1
2018-01-03T12:26:13.463Z,13.3
2018-01-03T12:27:15.583Z,10.6
2018-01-03T12:28:17.688Z,13.1
2018-01-03T12:29:19.559Z,13.7
2018-01-03T12:30:21.312Z,12.8
2018-01-03T12:31:24.170Z,14.4
2018-01-03T12:32:26.745Z,13.3
2018-01-03T12:33:28.720Z,11.0
2018-01-03T12:34:30.483Z,10.9
2018-01-03T12:35:32.549Z,11.0
2018-01-03T12:36:34.624Z,10.4
2018-01-03T12:37:36.744Z,9.3
2018-01-03T12:38:38.688Z,11.9
2018-01-03T12:39:41.331Z,15.2
2018-01-03T12:40:44.270Z,10.9
2018-01-03T12:41:46.311Z,14.1
2018-01-03T12:42:48.832Z,9.5
2018-01-03T12:43:50.819Z,13.0
2018-01-03T12:44:52.750Z,11.6
2018-01-03T12:45:54.650Z,11.7
2018-01-03T12:46:56.573Z,11.1
2018-01-03T12:47:58.705Z,11.2
2018-01-03T12:49:00.527Z,14.3
2018-01-03T12:50:02.554Z,7.6
2018-01-03T12:51:04.655Z,9.8
2018-01-03T12:52:06.516Z,8.0
2018-01-03T12:53:11.274Z,11.5
2018-01-03T12:54:13.140Z,13.1
2018-01-03T12:55:15.171Z,14.3
2018-01-03T12:56:17.001Z,13.7
2018-01-03T12:57:19.666Z,12.1
2018-01-03T12:58:21.571Z,11.5
2018-01-03T12:59:23.745Z,13.8
2018-01-03T13:00:25.847Z,11.9
2018-01-03T13:01:27.873Z,11.5
2018-01-03T13:02:30.179Z,11.2
2018-01-03T13:03:33.984Z,14.2
2018-01-03T13:04:36.016Z,12.1
2018-01-03T13:05:37.970Z,12.1
2018-01-03T13:06:40.277Z,16.9
2018-01-03T13:07:41.976Z,12.9
2018-01-03T13:08:44.123Z,13.7
2018-01-03T13:09:45.949Z,11.0
2018-01-03T13:10:48.868Z,12.9
2018-01-03T13:11:50.876Z,13.9
2018-01-03T13:12:52.806Z,14.7
2018-01-03T13:13:54.484Z,15.5
2018-01-03T13:14:57.317Z,13.1
2018-01-03T13:15:59.208Z,10.0
2018-01-03T13:17:01.200Z,12.7
2018-01-03T13:18:03.804Z,12.5
2018-01-03T13:19:05.609Z,14.7
2018-01-03T13:20:07.481Z,12.7
2018-01-03T13:21:09.687Z,15.9
2018-01-03T13:22:11.592Z,16.1
2018-01-03T13:23:20.247Z,14.8
2018-01-03T13:24:22.046Z,15.7
2018-01-03T13:25:23.946Z,12.3
2018-01-03T13:26:26.052Z,14.1
2018-01-03T13:27:28.669Z,15.1
2018-01-03T13:28:30.474Z,16.1
2018-01-03T13:29:32.691Z,14.4
2018-01-03T13:30:34.708Z,15.0
2018-01-03T13:31:36.952Z,14.2
2018-01-03T13:32:39.549Z,13.1
2018-01-03T13:33:42.329Z,10.3
2018-01-03T13:34:44.393Z,14.0
2018-01-03T13:35:47.460Z,12.5
2018-01-03T13:36:49.775Z,13.2
2018-01-03T13:37:52.276Z,14.2
2018-01-03T13:38:54.408Z,12.5
2018-01-03T13:39:56.356Z,13.7
2018-01-03T13:40:58.334Z,14.5
2018-01-03T13:42:00.444Z,12.9
2018-01-03T13:43:03.050Z,9.8
2018-01-03T13:44:07.551Z,15.8
2018-01-03T13:45:09.335Z,12.6
2018-01-03T13:46:11.254Z,15.5
2018-01-03T13:47:13.399Z,13.6
2018-01-03T13:48:15.285Z,12.2
2018-01-03T13:49:19.617Z,12.8
2018-01-03T13:50:21.487Z,14.4
2018-01-03T13:51:23.612Z,13.0
2018-01-03T13:52:25.508Z,15.8
2018-01-03T13:53:27.399Z,11.6
2018-01-03T13:54:30.427Z,15.5
2018-01-03T13:55:32.296Z,12.4
2018-01-03T13:56:34.137Z,10.3
2018-01-03T13:57:42.623Z,12.5
2018-01-03T13:58:44.256Z,13.7
2018-01-03T13:59:46.157Z,13.7
2018-01-03T14:00:47.848Z,13.0
2018-01-03T14:01:49.770Z,15.7
2018-01-03T14:02:51.866Z,13.1
2018-01-03T14:03:54.770Z,15.4
2018-01-03T14:04:57.326Z,14.2
2018-01-03T14:06:00.284Z,12.4
2018-01-03T14:07:03.039Z,11.9
2018-01-03T14:08:05.083Z,14.6
2018-01-03T14:09:09.757Z,12.1
2018-01-03T14:10:11.778Z,13.5
2018-01-03T14:11:14.577Z,14.5
2018-01-03T14:12:16.424Z,13.9
2018-01-03T14:13:18.498Z,15.3
2018-01-03T14:14:20.458Z,15.3
2018-01-03T14:15:23.398Z,13.0
2018-01-03T14:16:25.409Z,13.2
2018-01-03T14:17:27.177Z,11.1
2018-01-03T14:18:28.905Z,14.1
2018-01-03T14:19:31.760Z,11.9
2018-01-03T14:20:33.790Z,14.6
2018-01-03T14:21:35.814Z,11.9
2018-01-03T14:22:37.657Z,12.9
2018-01-03T14:23:39.642Z,10.6
2018-01-03T14:24:41.530Z,11.9
2018-01-03T14:25:43.926Z,10.8
2018-01-03T14:26:45.786Z,10.8
2018-01-03T14:27:47.841Z,13.0
2018-01-03T14:28:49.784Z,8.1
2018-01-03T14:29:51.816Z,13.1
2018-01-03T14:30:53.768Z,13.1
2018-01-03T14:31:55.743Z,9.9
2018-01-03T14:32:57.813Z,13.9
2018-01-03T14:34:00.073Z,9.5
2018-01-03T14:35:02.106Z,11.8
2018-01-03T14:36:04.177Z,10.3
2018-01-03T14:37:06.193Z,9.8
2018-01-03T14:38:10.893Z,9.7
2018-01-03T14:39:13.778Z,9.2
2018-01-03T14:40:15.583Z,14.1
2018-01-03T14:41:17.526Z,15.3
2018-01-03T14:42:19.705Z,13.6
2018-01-03T14:43:22.352Z,8.9
2018-01-03T14:44:24.281Z,13.1
2018-01-03T14:45:26.191Z,13.3
2018-01-03T14:46:28.225Z,13.2
2018-01-03T14:47:30.220Z,11.0
2018-01-03T14:48:32.246Z,15.1
2018-01-03T14:49:34.139Z,14.6
2018-01-03T14:50:42.785Z,11.9
2018-01-03T14:51:44.571Z,12.9
2018-01-03T14:52:47.281Z,12.7
2018-01-03T14:53:49.066Z,11.8
2018-01-03T14:54:50.999Z,14.8
2018-01-03T14:55:52.839Z,18.7
2018-01-03T14:56:54.695Z,15.1
2018-01-03T14:57:57.518Z,14.4
2018-01-03T14:58:59.467Z,13.4
2018-01-03T15:00:02.292Z,16.7
2018-01-03T15:01:04.243Z,16.5
2018-01-03T15:02:06.823Z,16.5
2018-01-03T15:03:08.880Z,19.1
2018-01-03T15:04:10.930Z,18.5
2018-01-03T15:05:12.916Z,14.5
2018-01-03T15:06:14.816Z,14.4
2018-01-03T15:07:16.598Z,15.4
2018-01-03T15:08:18.435Z,12.4
2018-01-03T15:09:20.410Z,12.4
2018-01-03T15:10:22.234Z,13.7
2018-01-03T15:11:24.746Z,13.1
2018-01-03T15:12:26.701Z,12.3
2018-01-03T15:13:28.957Z,13.8
2018-01-03T15:14:30.787Z,14.3
2018-01-03T15:15:32.802Z,13.2
2018-01-03T15:16:34.582Z,12.5
2018-01-03T15:17:37.356Z,11.8
2018-01-03T15:18:39.246Z,13.0
2018-01-03T15:19:41.185Z,12.7
2018-01-03T15:20:43.071Z,11.4
2018-01-03T15:21:45.023Z,13.2
2018-01-03T15:22:47.083Z,12.4
2018-01-03T15:23:49.134Z,15.3
2018-01-03T15:24:51.068Z,16.3
2018-01-03T15:25:53.071Z,12.1
2018-01-03T15:26:57.682Z,11.2
2018-01-03T15:28:00.435Z,13.3
2018-01-03T15:29:02.836Z,13.7
2018-01-03T15:30:09.983Z,12.9
2018-01-03T15:31:11.620Z,12.9
2018-01-03T15:32:13.750Z,12.0
2018-01-03T15:33:15.794Z,15.9
2018-01-03T15:34:17.824Z,14.6
2018-01-03T15:35:19.845Z,13.7
2018-01-03T15:36:21.769Z,14.1
2018-01-03T15:37:24.447Z,18.4
2018-01-03T15:38:26.479Z,13.7
2018-01-03T15:39:28.367Z,17.0
2018-01-03T15:40:30.814Z,14.9
2018-01-03T15:41:32.898Z,14.6
2018-01-03T15:42:35.806Z,14.9
2018-01-03T15:43:37.812Z,15.1
2018-01-03T15:44:39.863Z,15.6
2018-01-03T15:45:41.735Z,18.1
2018-01-03T15:46:43.605Z,20.3
2018-01-03T15:47:46.075Z,14.5
2018-01-03T15:48:48.048Z,14.4
2018-01-03T15:49:50.443Z,18.9
2018-01-03T15:50:52.735Z,17.2
2018-01-03T15:51:55.189Z,16.5
2018-01-03T15:52:57.331Z,15.2
2018-01-03T15:53:59.655Z,13.5
2018-01-03T15:55:02.789Z,14.8
2018-01-03T15:56:05.030Z,16.1
2018-01-03T15:57:07.460Z,13.6
2018-01-03T15:58:09.962Z,13.3
2018-01-03T15:59:12.777Z,11.9
2018-01-03T16:00:15.010Z,14.9
2018-01-03T16:01:17.133Z,14.2
2018-01-03T16:02:19.324Z,14.4
2018-01-03T16:03:21.437Z,15.4
2018-01-03T16:04:23.671Z,13.9
2018-01-03T16:05:25.833Z,14.3
2018-01-03T16:06:28.293Z,13.9
2018-01-03T16:07:31.033Z,13.9
2018-01-03T16:08:33.476Z,13.9
2018-01-03T16:09:35.865Z,15.8
2018-01-03T16:10:38.084Z,16.1
2018-01-03T16:11:40.711Z,14.8
2018-01-03T16:12:42.858Z,15.4
2018-01-03T16:13:44.935Z,17.9
2018-01-03T16:14:47.127Z,13.7
2018-01-03T16:15:49.285Z,14.2
2018-01-03T16:16:51.914Z,13.3
2018-01-03T16:17:54.463Z,18.7
2018-01-03T16:18:57.849Z,13.0
2018-01-03T16:19:59.974Z,14.2
2018-01-03T16:21:01.966Z,11.2
2018-01-03T16:24:05.632Z,12.8
2018-01-03T16:25:09.040Z,11.4
2018-01-03T16:26:11.117Z,14.4
2018-01-03T16:27:13.971Z,12.6
2018-01-03T16:28:16.808Z,14.4
2018-01-03T16:29:19.095Z,15.2
2018-01-03T16:30:21.226Z,13.0
2018-01-03T16:31:23.436Z,19.7
2018-01-03T16:32:28.034Z,16.4
2018-01-03T16:33:32.351Z,16.4
2018-01-03T16:34:35.364Z,16.0
2018-01-03T16:35:37.632Z,18.1
2018-01-03T16:36:39.967Z,16.8
2018-01-03T16:37:42.205Z,17.3
2018-01-03T16:38:44.470Z,16.9
2018-01-03T16:39:48.119Z,17.0
2018-01-03T16:40:50.461Z,16.1
2018-01-03T16:41:52.417Z,15.4
2018-01-03T16:42:55.234Z,17.4
2018-01-03T16:43:58.256Z,15.6
2018-01-03T16:45:00.512Z,21.2
2018-01-03T16:46:02.806Z,16.3
2018-01-03T16:47:05.176Z,20.9
2018-01-03T16:48:07.917Z,17.4
2018-01-03T16:49:10.163Z,18.8
2018-01-03T16:50:12.907Z,18.1
2018-01-03T16:51:15.681Z,14.5
2018-01-03T16:52:18.104Z,18.0
2018-01-03T16:53:20.501Z,19.5
2018-01-03T16:54:22.663Z,19.9
2018-01-03T16:55:25.361Z,22.2
2018-01-03T16:56:27.875Z,19.3
2018-01-03T16:57:30.200Z,19.4
2018-01-03T16:58:32.363Z,18.6
2018-01-03T16:59:34.854Z,22.7
2018-01-03T17:00:37.924Z,22.1
2018-01-03T17:01:40.791Z,25.5
2018-01-03T17:02:42.898Z,22.3
2018-01-03T17:03:47.356Z,22.4
2018-01-03T17:04:49.124Z,23.3
2018-01-03T17:05:51.567Z,23.8
2018-01-03T17:06:54.268Z,27.4
2018-01-03T17:07:58.357Z,28.2
2018-01-03T17:09:00.722Z,27.6
2018-01-03T17:10:03.353Z,21.2
2018-01-03T17:11:06.200Z,22.9
2018-01-03T17:12:08.331Z,22.5
2018-01-03T17:13:10.349Z,21.9
2018-01-03T17:14:12.723Z,23.4
2018-01-03T17:15:15.151Z,26.7
2018-01-03T17:16:17.610Z,29.1
2018-01-03T17:17:20.201Z,25.7
2018-01-03T17:18:22.361Z,20.4
2018-01-03T17:19:25.393Z,18.0
2018-01-03T17:20:27.620Z,16.6
2018-01-03T17:21:30.045Z,18.3
2018-01-03T17:22:32.500Z,18.4
2018-01-03T17:23:34.732Z,17.6
2018-01-03T17:24:39.139Z,15.3
2018-01-03T17:25:41.801Z,16.9
2018-01-03T17:26:44.212Z,18.0
2018-01-03T17:27:49.459Z,21.1
2018-01-03T17:28:51.758Z,21.2
2018-01-03T17:29:54.121Z,20.7
2018-01-03T17:30:56.859Z,20.3
2018-01-03T17:32:00.784Z,22.3
2018-01-03T17:33:03.190Z,25.2
2018-01-03T17:34:05.713Z,26.2
2018-01-03T17:35:08.071Z,22.0
2018-01-03T17:36:11.686Z,22.0
2018-01-03T17:37:14.064Z,24.3
2018-01-03T17:38:16.307Z,21.2
2018-01-03T17:39:20.235Z,19.1
2018-01-03T17:40:22.563Z,25.9
2018-01-03T17:41:25.047Z,23.9
2018-01-03T17:42:28.998Z,20.8
2018-01-03T17:43:33.563Z,19.9
2018-01-03T17:44:35.954Z,23.0
2018-01-03T17:45:38.396Z,22.8
2018-01-03T17:46:41.380Z,27.2
2018-01-03T17:47:43.755Z,24.1
2018-01-03T17:48:46.081Z,25.1
2018-01-03T17:49:48.574Z,25.5
2018-01-03T17:50:52.163Z,21.0
2018-01-03T17:51:54.276Z,21.1
2018-01-03T17:52:56.691Z,23.4
2018-01-03T17:53:58.850Z,24.1
2018-01-03T17:55:01.710Z,24.3
2018-01-03T17:56:04.072Z,28.5
2018-01-03T17:57:07.024Z,23.8
2018-01-03T17:58:09.150Z,20.6
2018-01-03T17:59:11.260Z,23.5
2018-01-03T18:00:14.683Z,26.9
2018-01-03T18:01:17.283Z,21.9
2018-01-03T18:02:19.451Z,24.2
2018-01-03T18:03:23.165Z,22.5
2018-01-03T18:04:25.039Z,21.7
2018-01-03T18:05:28.329Z,25.2
2018-01-03T18:06:30.714Z,23.1
2018-01-03T18:07:32.823Z,22.6
2018-01-03T18:08:34.934Z,21.5
2018-01-03T18:09:37.227Z,23.1
2018-01-03T18:10:39.450Z,19.5
2018-01-03T18:11:41.860Z,18.8
2018-01-03T18:12:44.235Z,24.9
2018-01-03T18:13:46.575Z,23.7
2018-01-03T18:14:48.777Z,20.3
2018-01-03T18:15:51.328Z,22.0
2018-01-03T18:16:53.751Z,19.3
2018-01-03T18:17:55.980Z,21.2
2018-01-03T18:18:58.221Z,22.3
2018-01-03T18:20:00.383Z,22.6
2018-01-03T18:21:02.638Z,20.0
2018-01-03T18:22:05.495Z,17.7
2018-01-03T18:23:07.989Z,21.5
2018-01-03T18:24:10.511Z,23.6
2018-01-03T18:25:12.737Z,21.3
2018-01-03T18:26:15.136Z,24.5
2018-01-03T18:27:17.654Z,23.2
2018-01-03T18:28:19.961Z,21.9
2018-01-03T18:29:23.110Z,20.0
2018-01-03T18:30:25.449Z,22.0
2018-01-03T18:31:28.239Z,25.0
2018-01-03T18:32:30.982Z,21.0
2018-01-03T18:33:33.298Z,27.7
2018-01-03T18:34:35.802Z,25.0
2018-01-03T18:35:38.041Z,23.9
2018-01-03T18:36:40.288Z,24.7
2018-01-03T18:37:42.351Z,25.3
2018-01-03T18:38:44.496Z,27.8
2018-01-03T18:39:46.481Z,25.0
2018-01-03T18:40:48.350Z,24.9
2018-01-03T18:41:50.496Z,29.5
2018-01-03T18:42:52.475Z,21.6